Terminal Aerodrome Forecast
Issued by NWS Amarillo, TX

Home | Current Version | Previous Version | Text Only | Print | Product List | Glossary On
Versions: 1 2 3 4 5 6 7 8 9 10 11 12 13
000
FTUS44 KAMA 051120
TAFDHT
TAF
KDHT 051120Z 0512/0612 VRB05KT P6SM SKC
     FM051700 20013G23KT P6SM SKC
     FM060000 18010KT P6SM SKC=

USA.gov is the U.S. government's official web portal to all federal, state and local government web resources and services.